Time;durP1;ratioP1;P1;durP2;ratioP2;P2;SDS_P1;SDS_P2;PMS_P1;PMS_P2;Temp;Humidity;BMP_temperature;BMP_pressure;BME280_temperature;BME280_humidity;BME280_pressure;Samples;Min_cycle;Max_cycle;Signal;HPM_P1;HPM_P2
2022/04/29 00:02:09;;;;;;;2.57;2.47;;;;;;;;;;5045391;28;20462;-72
2022/04/29 00:04:36;;;;;;;2.10;2.00;;;;;;;;;;5047846;28;20446;-72
2022/04/29 00:07:02;;;;;;;4.03;3.60;;;;;;;;;;5049268;28;20434;-72
2022/04/29 00:09:28;;;;;;;2.43;2.33;;;;;;;;;;5049869;28;20500;-72
2022/04/29 00:11:54;;;;;;;2.00;2.00;;;;;;;;;;5048637;28;20433;-72
2022/04/29 00:14:20;;;;;;;2.93;2.70;;;;;;;;;;5048915;28;20443;-72
2022/04/29 00:16:47;;;;;;;2.13;2.13;;;;;;;;;;5049512;28;20966;-72
2022/04/29 00:19:13;;;;;;;1.83;1.83;;;;;;;;;;5049709;28;20488;-72
2022/04/29 00:21:41;;;;;;;2.27;2.17;;;;;;;;;;5047685;28;20838;-72
2022/04/29 00:24:08;;;;;;;6.07;2.43;;;;;;;;;;5047024;28;20483;-72
2022/04/29 00:26:35;;;;;;;2.80;2.70;;;;;;;;;;5048667;28;20517;-72
2022/04/29 00:29:01;;;;;;;2.40;2.40;;;;;;;;;;5049384;28;20437;-72
2022/04/29 00:31:28;;;;;;;1.93;1.93;;;;;;;;;;5045831;28;20447;-72
2022/04/29 00:33:54;;;;;;;2.50;2.40;;;;;;;;;;5047145;28;20442;-72
2022/04/29 00:36:20;;;;;;;2.50;2.40;;;;;;;;;;5048017;28;20434;-72
2022/04/29 00:38:46;;;;;;;2.57;2.47;;;;;;;;;;5050727;28;20454;-72
2022/04/29 00:41:16;;;;;;;2.33;2.00;;;;;;;;;;5050070;28;20462;-72
2022/04/29 00:43:42;;;;;;;2.00;1.90;;;;;;;;;;5046983;28;20520;-72
2022/04/29 00:46:09;;;;;;;9.53;2.40;;;;;;;;;;5048297;28;20458;-72
2022/04/29 00:48:35;;;;;;;2.60;2.53;;;;;;;;;;5051192;28;20433;-72
2022/04/29 00:51:01;;;;;;;2.10;2.10;;;;;;;;;;5045510;28;20470;-72
2022/04/29 00:53:27;;;;;;;2.70;2.50;;;;;;;;;;5048040;28;20427;-72
2022/04/29 00:55:55;;;;;;;2.73;2.43;;;;;;;;;;5045427;28;20435;-72
2022/04/29 00:58:24;;;;;;;2.50;2.40;;;;;;;;;;5048564;28;20438;-72
2022/04/29 01:00:50;;;;;;;2.93;2.83;;;;;;;;;;5048966;28;20426;-72
2022/04/29 01:03:16;;;;;;;2.40;2.40;;;;;;;;;;5047490;28;20497;-72
2022/04/29 01:05:43;;;;;;;2.90;2.60;;;;;;;;;;5048785;28;20866;-72
2022/04/29 01:08:10;;;;;;;2.87;2.77;;;;;;;;;;5048581;28;20458;-72
2022/04/29 01:10:36;;;;;;;3.10;2.33;;;;;;;;;;5046190;28;20465;-72
2022/04/29 01:13:03;;;;;;;5.70;2.50;;;;;;;;;;5045615;28;20474;-71
2022/04/29 01:15:30;;;;;;;3.07;2.97;;;;;;;;;;5046092;28;20449;-72
2022/04/29 01:17:58;;;;;;;3.17;2.97;;;;;;;;;;5047323;28;20450;-72
2022/04/29 01:20:28;;;;;;;3.63;2.53;;;;;;;;;;5047842;28;20422;-72
2022/04/29 01:22:55;;;;;;;3.17;2.97;;;;;;;;;;5047086;28;20481;-72
2022/04/29 01:25:21;;;;;;;2.50;2.40;;;;;;;;;;5041318;28;20449;-72
2022/04/29 01:27:48;;;;;;;2.57;2.50;;;;;;;;;;5047122;28;20438;-72
2022/04/29 01:30:16;;;;;;;4.10;2.30;;;;;;;;;;5048455;28;20437;-72
2022/04/29 01:32:42;;;;;;;2.97;2.77;;;;;;;;;;5046022;28;20434;-72
2022/04/29 01:35:09;;;;;;;2.67;2.43;;;;;;;;;;5047434;28;20944;-72
2022/04/29 01:37:35;;;;;;;3.40;3.30;;;;;;;;;;5049585;28;20447;-72
2022/04/29 01:40:01;;;;;;;2.67;2.57;;;;;;;;;;5048412;28;20465;-71
2022/04/29 01:42:27;;;;;;;3.10;3.00;;;;;;;;;;5047978;28;20466;-72
2022/04/29 01:44:54;;;;;;;2.47;2.37;;;;;;;;;;5047976;28;20434;-72
2022/04/29 01:47:19;;;;;;;9.53;2.87;;;;;;;;;;5047176;28;20795;-72
2022/04/29 01:49:45;;;;;;;2.27;2.17;;;;;;;;;;5044887;28;20469;-71
2022/04/29 01:52:11;;;;;;;2.50;2.40;;;;;;;;;;5049786;28;20902;-72
2022/04/29 01:54:38;;;;;;;3.03;2.83;;;;;;;;;;5047547;28;20446;-72
2022/04/29 01:57:07;;;;;;;2.70;2.60;;;;;;;;;;5046491;28;20446;-72
2022/04/29 01:59:34;;;;;;;2.60;2.50;;;;;;;;;;5046797;28;20450;-72
2022/04/29 02:02:00;;;;;;;3.07;2.40;;;;;;;;;;5047690;28;20481;-72
2022/04/29 02:04:26;;;;;;;2.50;2.40;;;;;;;;;;5045798;28;20521;-72
2022/04/29 02:06:52;;;;;;;5.40;2.40;;;;;;;;;;5044538;28;20438;-72
2022/04/29 02:09:19;;;;;;;2.13;2.13;;;;;;;;;;5049674;28;20461;-72
2022/04/29 02:12:04;;;;;;;2.03;1.93;;;;;;;;;;5044432;28;20430;-72
2022/04/29 02:14:30;;;;;;;2.70;2.70;;;;;;;;;;5047582;28;20425;-72
2022/04/29 02:16:57;;;;;;;2.37;2.37;;;;;;;;;;5045740;28;20960;-72
2022/04/29 02:19:23;;;;;;;2.67;2.67;;;;;;;;;;5049686;28;20426;-72
2022/04/29 02:21:49;;;;;;;2.43;2.33;;;;;;;;;;5047170;28;20443;-72
2022/04/29 02:24:15;;;;;;;2.90;2.60;;;;;;;;;;5048296;28;20481;-72
2022/04/29 02:26:41;;;;;;;4.90;2.57;;;;;;;;;;5046959;28;20512;-72
2022/04/29 02:29:08;;;;;;;5.63;2.27;;;;;;;;;;5049643;28;20770;-72
2022/04/29 02:31:34;;;;;;;2.77;2.57;;;;;;;;;;5046548;28;20458;-72
2022/04/29 02:34:00;;;;;;;2.47;2.37;;;;;;;;;;5047145;28;20442;-72
2022/04/29 02:36:26;;;;;;;2.87;2.87;;;;;;;;;;5047487;28;20437;-72
2022/04/29 02:38:52;;;;;;;2.70;2.60;;;;;;;;;;5048755;28;20434;-72
2022/04/29 02:41:18;;;;;;;3.00;2.70;;;;;;;;;;5044060;28;21321;-72
2022/04/29 02:43:44;;;;;;;2.53;2.53;;;;;;;;;;5048883;28;20518;-72
2022/04/29 02:46:10;;;;;;;2.13;2.13;;;;;;;;;;5048822;28;20437;-72
2022/04/29 02:48:36;;;;;;;2.70;2.70;;;;;;;;;;5047893;28;20450;-72
2022/04/29 02:51:05;;;;;;;2.70;2.60;;;;;;;;;;5044935;28;21705;-72
2022/04/29 02:53:32;;;;;;;6.47;2.53;;;;;;;;;;5048405;28;20434;-72
2022/04/29 02:55:58;;;;;;;2.50;2.50;;;;;;;;;;5046716;28;20427;-72
2022/04/29 02:58:24;;;;;;;2.80;2.80;;;;;;;;;;5042489;28;20488;-72
2022/04/29 03:00:50;;;;;;;2.50;2.50;;;;;;;;;;5046878;28;20426;-72
2022/04/29 03:03:16;;;;;;;2.53;2.50;;;;;;;;;;5047235;28;20502;-72
2022/04/29 03:05:42;;;;;;;2.60;2.60;;;;;;;;;;5045696;28;20430;-72
2022/04/29 03:08:08;;;;;;;2.73;2.63;;;;;;;;;;5046332;28;20442;-72
2022/04/29 03:10:36;;;;;;;10.20;2.33;;;;;;;;;;5046428;28;20456;-72
2022/04/29 03:13:02;;;;;;;3.00;2.67;;;;;;;;;;5048590;28;20930;-72
2022/04/29 03:15:28;;;;;;;3.40;3.20;;;;;;;;;;5048235;28;20478;-72
2022/04/29 03:20:40;;;;;;;3.23;3.10;;;;;;;;;;5046302;28;20456;-72
2022/04/29 03:23:06;;;;;;;3.90;3.10;;;;;;;;;;5045032;28;20607;-72
2022/04/29 03:25:32;;;;;;;2.37;2.37;;;;;;;;;;5048004;28;20437;-72
2022/04/29 03:27:58;;;;;;;10.83;3.20;;;;;;;;;;5047296;28;20422;-72
2022/04/29 03:30:24;;;;;;;3.00;2.90;;;;;;;;;;5044627;28;20442;-71
2022/04/29 03:32:52;;;;;;;7.63;2.90;;;;;;;;;;5043566;28;20448;-72
2022/04/29 03:35:18;;;;;;;2.80;2.50;;;;;;;;;;5044358;28;20983;-72
2022/04/29 03:37:45;;;;;;;4.43;3.10;;;;;;;;;;5049948;28;20638;-72
2022/04/29 03:40:11;;;;;;;2.40;2.30;;;;;;;;;;5051330;28;20430;-72
2022/04/29 03:42:37;;;;;;;2.90;2.90;;;;;;;;;;5047189;28;21030;-72
2022/04/29 03:45:03;;;;;;;2.50;2.40;;;;;;;;;;5050104;28;20548;-72
2022/04/29 03:47:29;;;;;;;4.60;3.50;;;;;;;;;;5044243;28;20449;-72
2022/04/29 03:49:55;;;;;;;4.40;2.87;;;;;;;;;;5050754;28;20466;-72
2022/04/29 03:52:21;;;;;;;3.93;2.80;;;;;;;;;;5046659;28;20941;-72
2022/04/29 03:54:47;;;;;;;3.27;2.83;;;;;;;;;;5051908;28;20418;-71
2022/04/29 03:57:13;;;;;;;2.57;2.47;;;;;;;;;;5050334;28;20903;-72
2022/04/29 03:59:40;;;;;;;2.57;2.47;;;;;;;;;;5048846;28;21054;-72
2022/04/29 04:02:06;;;;;;;2.70;2.60;;;;;;;;;;5046775;28;20509;-71
2022/04/29 04:04:32;;;;;;;3.43;3.20;;;;;;;;;;5048366;28;20474;-72
2022/04/29 04:07:01;;;;;;;3.57;3.47;;;;;;;;;;5051042;28;20431;-72
2022/04/29 04:09:27;;;;;;;3.40;3.30;;;;;;;;;;5051168;28;20438;-72
2022/04/29 04:11:53;;;;;;;3.50;2.70;;;;;;;;;;5049845;28;20442;-72
2022/04/29 04:14:19;;;;;;;2.70;2.50;;;;;;;;;;5050015;28;20513;-71
2022/04/29 04:16:46;;;;;;;2.70;2.60;;;;;;;;;;5043842;28;20514;-72
2022/04/29 04:19:12;;;;;;;3.40;3.20;;;;;;;;;;5050123;28;20422;-72
2022/04/29 04:21:39;;;;;;;3.77;3.27;;;;;;;;;;5048373;28;20480;-72
2022/04/29 04:24:05;;;;;;;3.10;3.10;;;;;;;;;;5047456;28;20847;-71
2022/04/29 04:26:32;;;;;;;2.43;2.43;;;;;;;;;;5045247;28;20458;-72
2022/04/29 04:28:58;;;;;;;3.27;3.17;;;;;;;;;;5050857;28;20430;-72
2022/04/29 04:31:24;;;;;;;6.67;2.97;;;;;;;;;;5045346;28;20823;-72
2022/04/29 04:33:50;;;;;;;2.77;2.67;;;;;;;;;;5045166;28;20530;-72
2022/04/29 04:36:16;;;;;;;3.37;3.13;;;;;;;;;;5046963;28;20449;-72
2022/04/29 04:38:44;;;;;;;3.03;2.87;;;;;;;;;;5045721;28;20440;-72
2022/04/29 04:41:11;;;;;;;5.23;3.27;;;;;;;;;;5049262;28;20465;-72
2022/04/29 04:43:37;;;;;;;4.13;2.87;;;;;;;;;;5041220;28;20931;-72
2022/04/29 04:46:04;;;;;;;9.50;3.47;;;;;;;;;;5039749;28;20513;-72
2022/04/29 04:48:31;;;;;;;3.90;3.00;;;;;;;;;;5047183;28;20430;-71
2022/04/29 04:51:01;;;;;;;3.17;3.07;;;;;;;;;;5046750;28;20501;-72
2022/04/29 04:53:27;;;;;;;3.23;3.13;;;;;;;;;;5048923;28;20448;-72
2022/04/29 04:55:53;;;;;;;4.87;3.40;;;;;;;;;;5050149;28;20521;-72
2022/04/29 04:58:19;;;;;;;6.00;3.37;;;;;;;;;;5049389;28;20454;-71
2022/04/29 05:00:45;;;;;;;3.57;3.27;;;;;;;;;;5046979;28;21034;-72
2022/04/29 05:03:11;;;;;;;3.53;3.37;;;;;;;;;;5048060;28;20470;-72
2022/04/29 05:05:37;;;;;;;3.80;3.70;;;;;;;;;;5046022;28;20458;-78
2022/04/29 05:08:03;;;;;;;3.00;2.90;;;;;;;;;;5050565;28;20759;-78
2022/04/29 05:10:29;;;;;;;4.20;3.93;;;;;;;;;;5046509;28;20435;-80
2022/04/29 05:12:55;;;;;;;6.60;3.70;;;;;;;;;;5041719;28;20427;-80
2022/04/29 05:15:21;;;;;;;3.33;3.23;;;;;;;;;;5046346;28;20522;-76
2022/04/29 05:17:47;;;;;;;3.17;3.07;;;;;;;;;;5049131;28;20525;-77
2022/04/29 05:20:15;;;;;;;5.03;3.20;;;;;;;;;;5044871;28;20446;-72
2022/04/29 05:22:41;;;;;;;3.87;3.67;;;;;;;;;;5045650;28;20474;-73
2022/04/29 05:25:08;;;;;;;5.53;3.33;;;;;;;;;;5047587;28;20439;-78
2022/04/29 05:27:34;;;;;;;3.33;3.30;;;;;;;;;;5047396;28;20430;-77
2022/04/29 05:30:00;;;;;;;4.03;3.93;;;;;;;;;;5044239;28;20576;-80
2022/04/29 05:32:26;;;;;;;13.63;3.90;;;;;;;;;;5042723;28;20449;-79
2022/04/29 05:34:52;;;;;;;4.30;4.20;;;;;;;;;;5044569;28;20447;-79
2022/04/29 05:37:19;;;;;;;8.13;3.30;;;;;;;;;;5047676;28;20418;-77
2022/04/29 05:42:30;;;;;;;8.20;3.53;;;;;;;;;;5047512;28;20465;-80
2022/04/29 05:44:56;;;;;;;4.57;4.20;;;;;;;;;;5044319;28;20858;-79
2022/04/29 05:47:22;;;;;;;4.33;4.03;;;;;;;;;;5046135;28;20430;-77
2022/04/29 05:49:48;;;;;;;4.50;3.77;;;;;;;;;;5045775;28;20493;-80
2022/04/29 05:52:14;;;;;;;4.67;4.13;;;;;;;;;;5041661;28;20426;-78
2022/04/29 05:54:40;;;;;;;4.73;4.03;;;;;;;;;;5048235;28;20998;-78
2022/04/29 05:57:06;;;;;;;7.57;4.80;;;;;;;;;;5046684;28;20522;-78
2022/04/29 05:59:33;;;;;;;5.50;5.10;;;;;;;;;;5046673;28;20514;-77
2022/04/29 06:02:00;;;;;;;6.63;4.90;;;;;;;;;;5046865;28;20446;-77
2022/04/29 06:04:26;;;;;;;4.63;4.43;;;;;;;;;;5047265;28;20494;-78
2022/04/29 06:06:52;;;;;;;8.10;3.93;;;;;;;;;;5048961;28;20419;-68
2022/04/29 06:09:18;;;;;;;5.73;4.07;;;;;;;;;;5048146;28;20437;-76
2022/04/29 06:11:45;;;;;;;4.47;3.97;;;;;;;;;;5048821;28;20419;-74
2022/04/29 06:14:11;;;;;;;9.57;4.87;;;;;;;;;;5048057;28;20517;-76
2022/04/29 06:16:37;;;;;;;7.80;4.87;;;;;;;;;;5049057;28;20530;-81
2022/04/29 06:19:03;;;;;;;4.50;4.33;;;;;;;;;;5047734;28;20438;-80
2022/04/29 06:21:29;;;;;;;6.00;5.13;;;;;;;;;;5047766;28;20509;-79
2022/04/29 06:23:55;;;;;;;4.57;4.37;;;;;;;;;;5047299;28;20522;-79
2022/04/29 06:26:21;;;;;;;7.43;4.37;;;;;;;;;;5048610;28;20469;-81
2022/04/29 06:28:47;;;;;;;6.33;5.27;;;;;;;;;;5049334;28;20418;-80
2022/04/29 06:31:13;;;;;;;5.20;5.00;;;;;;;;;;5041470;28;20437;-80
2022/04/29 06:33:39;;;;;;;10.50;5.40;;;;;;;;;;5042447;28;20953;-78
2022/04/29 06:36:06;;;;;;;10.40;5.30;;;;;;;;;;5045726;28;20438;-80
2022/04/29 06:38:32;;;;;;;6.50;5.90;;;;;;;;;;5045029;28;20445;-80
2022/04/29 06:40:58;;;;;;;5.73;5.27;;;;;;;;;;5045920;28;20410;-80
2022/04/29 06:43:25;;;;;;;6.50;5.33;;;;;;;;;;5046945;28;20500;-80
2022/04/29 06:45:51;;;;;;;5.80;5.10;;;;;;;;;;5047007;28;20464;-77
2022/04/29 06:48:17;;;;;;;6.07;5.47;;;;;;;;;;5048887;28;20802;-79
2022/04/29 06:50:43;;;;;;;8.80;5.67;;;;;;;;;;5043602;28;20564;-76
2022/04/29 06:53:09;;;;;;;5.47;5.07;;;;;;;;;;5047346;28;20509;-79
2022/04/29 06:55:39;;;;;;;5.60;5.10;;;;;;;;;;5047671;28;20782;-77
2022/04/29 06:58:06;;;;;;;6.63;4.97;;;;;;;;;;5046828;28;20510;-79
2022/04/29 07:00:32;;;;;;;6.40;5.90;;;;;;;;;;5041893;28;20448;-73
2022/04/29 07:03:02;;;;;;;8.03;5.90;;;;;;;;;;5041639;28;20486;-78
2022/04/29 07:05:30;;;;;;;6.63;6.00;;;;;;;;;;5045244;28;20438;-76
2022/04/29 07:07:57;;;;;;;5.90;5.60;;;;;;;;;;5045229;28;20803;-75
2022/04/29 07:10:23;;;;;;;6.20;5.50;;;;;;;;;;5040378;28;20522;-77
2022/04/29 07:12:49;;;;;;;6.43;5.70;;;;;;;;;;5038528;28;20539;-79
2022/04/29 07:15:16;;;;;;;9.17;6.63;;;;;;;;;;5045329;28;20443;-79
2022/04/29 07:17:43;;;;;;;5.13;4.87;;;;;;;;;;5047247;28;20438;-76
2022/04/29 07:20:10;;;;;;;7.93;5.67;;;;;;;;;;5044959;28;20443;-80
2022/04/29 07:22:38;;;;;;;7.20;6.60;;;;;;;;;;5047766;28;20531;-80
2022/04/29 07:25:05;;;;;;;6.47;5.07;;;;;;;;;;5048374;28;20465;-80
2022/04/29 07:27:32;;;;;;;6.90;4.83;;;;;;;;;;5050063;28;20774;-80
2022/04/29 07:29:58;;;;;;;7.90;6.20;;;;;;;;;;5044881;28;20942;-78
2022/04/29 07:32:25;;;;;;;4.97;4.80;;;;;;;;;;5043886;28;20439;-79
2022/04/29 07:43:06;;;;;;;5.50;5.00;;;;;;;;;;5047222;28;20465;-79
2022/04/29 07:45:32;;;;;;;6.13;5.53;;;;;;;;;;5049923;28;20434;-79
2022/04/29 07:48:00;;;;;;;6.27;5.67;;;;;;;;;;5047918;28;20799;-80
2022/04/29 07:50:29;;;;;;;5.13;4.77;;;;;;;;;;5046267;28;20473;-76
2022/04/29 07:52:56;;;;;;;7.07;6.50;;;;;;;;;;5046860;28;20590;-77
2022/04/29 07:55:22;;;;;;;5.43;5.03;;;;;;;;;;5037316;28;20431;-75
2022/04/29 07:57:48;;;;;;;9.90;4.73;;;;;;;;;;5047316;28;20438;-79
2022/04/29 08:00:14;;;;;;;5.90;5.50;;;;;;;;;;5046069;28;20449;-80
2022/04/29 08:02:40;;;;;;;7.23;4.37;;;;;;;;;;5049563;28;20481;-79
2022/04/29 08:05:06;;;;;;;5.23;4.93;;;;;;;;;;5046546;28;20427;-79
2022/04/29 08:07:33;;;;;;;9.93;5.70;;;;;;;;;;5046050;28;20509;-80
2022/04/29 08:09:59;;;;;;;8.43;5.00;;;;;;;;;;5047855;28;20454;-78
2022/04/29 08:12:26;;;;;;;9.97;5.43;;;;;;;;;;5044459;28;20799;-79
2022/04/29 08:14:52;;;;;;;6.40;4.47;;;;;;;;;;5037301;28;20890;-80
2022/04/29 08:17:19;;;;;;;5.00;4.57;;;;;;;;;;5044650;28;20441;-80
2022/04/29 08:19:45;;;;;;;6.40;4.37;;;;;;;;;;5043005;28;20465;-77
2022/04/29 08:22:11;;;;;;;4.10;4.00;;;;;;;;;;5048541;28;20468;-80
2022/04/29 08:24:37;;;;;;;5.07;4.60;;;;;;;;;;5050549;28;20486;-80
2022/04/29 08:27:04;;;;;;;7.67;3.63;;;;;;;;;;5049802;28;20509;-78
2022/04/29 08:29:30;;;;;;;3.73;3.63;;;;;;;;;;5045422;28;20454;-79
2022/04/29 08:31:56;;;;;;;4.47;4.23;;;;;;;;;;5047444;28;20904;-79
2022/04/29 08:34:22;;;;;;;7.27;4.20;;;;;;;;;;5064899;28;20450;-79
2022/04/29 08:36:48;;;;;;;4.47;4.10;;;;;;;;;;5049539;28;20527;-80
2022/04/29 08:39:14;;;;;;;3.90;3.70;;;;;;;;;;5044621;28;20949;-79
2022/04/29 08:41:40;;;;;;;5.13;4.83;;;;;;;;;;5041327;28;20438;-74
2022/04/29 08:44:10;;;;;;;5.80;5.40;;;;;;;;;;5046409;28;20501;-75
2022/04/29 08:46:40;;;;;;;6.07;5.63;;;;;;;;;;5043763;28;21040;-76
2022/04/29 08:49:06;;;;;;;6.00;5.27;;;;;;;;;;5048091;28;20449;-78
2022/04/29 08:51:34;;;;;;;5.60;5.20;;;;;;;;;;5050400;28;20787;-79
2022/04/29 08:54:01;;;;;;;5.20;4.90;;;;;;;;;;5048436;28;20946;-79
2022/04/29 08:59:12;;;;;;;5.93;5.53;;;;;;;;;;5047601;28;20426;-79
2022/04/29 09:01:40;;;;;;;5.70;5.10;;;;;;;;;;5043677;28;20795;-77
2022/04/29 09:04:06;;;;;;;5.43;5.03;;;;;;;;;;5046916;28;20493;-77
2022/04/29 09:06:32;;;;;;;5.83;5.40;;;;;;;;;;5047385;28;20426;-76
2022/04/29 09:09:09;;;;;;;5.50;5.20;;;;;;;;;;5047544;28;20442;-76
2022/04/29 09:11:35;;;;;;;6.33;5.37;;;;;;;;;;5042474;28;20426;-76
2022/04/29 09:14:18;;;;;;;5.77;5.27;;;;;;;;;;5048966;28;21142;-76
2022/04/29 09:16:45;;;;;;;5.93;5.63;;;;;;;;;;5045457;28;20446;-76
2022/04/29 09:19:28;;;;;;;8.43;5.60;;;;;;;;;;5045827;28;20946;-79
2022/04/29 09:22:04;;;;;;;4.27;4.13;;;;;;;;;;5048258;28;20465;-79
2022/04/29 09:24:30;;;;;;;4.83;4.40;;;;;;;;;;5043637;28;20488;-77
2022/04/29 09:27:01;;;;;;;5.47;4.67;;;;;;;;;;5045292;28;20426;-75
2022/04/29 09:29:28;;;;;;;6.47;4.13;;;;;;;;;;5031950;28;20446;-79
2022/04/29 09:31:58;;;;;;;5.80;4.47;;;;;;;;;;5035246;28;20429;-73
2022/04/29 09:34:43;;;;;;;3.93;3.50;;;;;;;;;;5039581;28;20517;-73
2022/04/29 09:37:19;;;;;;;4.30;4.10;;;;;;;;;;5046098;28;20435;-78
2022/04/29 09:40:02;;;;;;;4.97;4.70;;;;;;;;;;5048210;28;20434;-79
2022/04/29 09:42:38;;;;;;;11.03;3.77;;;;;;;;;;5045917;28;20438;-79
2022/04/29 09:45:24;;;;;;;4.40;4.03;;;;;;;;;;5047770;28;20941;-79
2022/04/29 09:47:54;;;;;;;3.67;3.57;;;;;;;;;;5047439;28;20854;-79
2022/04/29 09:50:20;;;;;;;4.80;4.53;;;;;;;;;;5043587;28;20551;-79
2022/04/29 09:52:46;;;;;;;3.30;3.20;;;;;;;;;;5045050;28;20817;-80
2022/04/29 09:55:18;;;;;;;3.87;3.77;;;;;;;;;;5043999;28;20430;-78
2022/04/29 09:58:00;;;;;;;3.00;2.80;;;;;;;;;;5046843;28;20945;-79
2022/04/29 10:00:27;;;;;;;8.50;3.47;;;;;;;;;;5042035;28;20439;-79
2022/04/29 10:02:53;;;;;;;3.33;3.13;;;;;;;;;;5043728;28;20482;-80
2022/04/29 10:05:19;;;;;;;4.53;3.00;;;;;;;;;;5043715;28;20453;-79
2022/04/29 10:07:45;;;;;;;3.87;3.57;;;;;;;;;;5047130;28;20430;-79
2022/04/29 10:10:11;;;;;;;6.50;2.90;;;;;;;;;;5045417;28;20505;-80
2022/04/29 10:12:37;;;;;;;3.87;3.77;;;;;;;;;;5047701;28;20473;-80
2022/04/29 10:15:09;;;;;;;4.80;4.50;;;;;;;;;;5042569;28;20880;-80
2022/04/29 10:23:07;;;;;;;3.33;3.13;;;;;;;;;;5046784;28;20565;-75
2022/04/29 10:25:34;;;;;;;2.80;2.70;;;;;;;;;;5042460;28;20434;-75
2022/04/29 10:28:00;;;;;;;6.80;3.33;;;;;;;;;;5042957;28;20499;-78
2022/04/29 10:30:28;;;;;;;4.53;3.03;;;;;;;;;;5044199;28;20929;-79
2022/04/29 10:33:07;;;;;;;3.70;2.80;;;;;;;;;;5041900;28;20439;-79
2022/04/29 10:35:59;;;;;;;2.50;2.50;;;;;;;;;;5036790;28;20461;-79
2022/04/29 10:38:34;;;;;;;3.10;2.90;;;;;;;;;;5039832;28;20431;-78
2022/04/29 10:41:09;;;;;;;2.93;2.73;;;;;;;;;;5043642;28;20530;-78
2022/04/29 10:43:39;;;;;;;5.03;3.67;;;;;;;;;;5042130;28;20496;-80
2022/04/29 10:46:05;;;;;;;4.10;2.93;;;;;;;;;;5044105;28;20437;-78
2022/04/29 10:48:31;;;;;;;11.43;4.20;;;;;;;;;;5047841;28;20431;-79
2022/04/29 10:50:58;;;;;;;3.03;2.83;;;;;;;;;;5047066;28;20462;-79
2022/04/29 10:53:24;;;;;;;3.20;3.00;;;;;;;;;;5049657;28;20910;-81
2022/04/29 10:55:51;;;;;;;3.40;2.83;;;;;;;;;;5045534;28;20447;-79
2022/04/29 10:58:20;;;;;;;4.03;3.83;;;;;;;;;;5046561;28;20478;-80
2022/04/29 11:00:56;;;;;;;3.30;3.17;;;;;;;;;;5046526;28;20521;-79
2022/04/29 11:03:39;;;;;;;3.77;3.43;;;;;;;;;;5047432;28;20539;-79
2022/04/29 11:06:09;;;;;;;3.03;2.93;;;;;;;;;;5044745;28;20450;-79
2022/04/29 11:08:35;;;;;;;3.10;3.00;;;;;;;;;;5043502;28;20445;-77
2022/04/29 11:11:01;;;;;;;2.63;2.50;;;;;;;;;;5052458;28;20505;-75
2022/04/29 11:13:30;;;;;;;3.60;3.07;;;;;;;;;;5046201;28;20434;-78
2022/04/29 11:16:07;;;;;;;3.83;3.73;;;;;;;;;;5049497;28;20744;-76
2022/04/29 11:18:33;;;;;;;3.03;3.03;;;;;;;;;;5043609;28;20426;-77
2022/04/29 11:21:00;;;;;;;4.37;4.07;;;;;;;;;;5044996;28;20525;-79
2022/04/29 11:26:14;;;;;;;3.90;3.70;;;;;;;;;;5045905;28;20825;-79
2022/04/29 11:28:41;;;;;;;2.83;2.73;;;;;;;;;;5049440;28;20503;-79
2022/04/29 11:31:08;;;;;;;3.20;2.97;;;;;;;;;;5046773;28;20430;-78
2022/04/29 11:33:34;;;;;;;3.30;2.33;;;;;;;;;;5045161;28;20787;-78
2022/04/29 11:36:06;;;;;;;3.10;2.97;;;;;;;;;;5041203;28;20777;-79
2022/04/29 11:38:40;;;;;;;2.60;2.50;;;;;;;;;;5048841;28;20433;-78
2022/04/29 11:41:06;;;;;;;2.43;2.40;;;;;;;;;;5047735;28;20995;-79
2022/04/29 11:43:32;;;;;;;3.93;3.70;;;;;;;;;;5044079;28;20478;-76
2022/04/29 11:46:07;;;;;;;2.30;2.20;;;;;;;;;;5045459;28;20868;-80
2022/04/29 11:48:34;;;;;;;2.27;2.17;;;;;;;;;;5046884;28;20429;-77
2022/04/29 11:51:04;;;;;;;4.23;2.60;;;;;;;;;;5041751;28;20564;-79
2022/04/29 11:53:31;;;;;;;3.23;2.80;;;;;;;;;;5046191;28;20820;-79
2022/04/29 11:55:57;;;;;;;2.33;2.30;;;;;;;;;;5045496;28;20434;-79
2022/04/29 11:58:23;;;;;;;2.87;2.70;;;;;;;;;;5041679;28;20437;-77
2022/04/29 12:00:49;;;;;;;2.30;2.30;;;;;;;;;;5044051;28;20434;-78
2022/04/29 12:03:33;;;;;;;3.10;3.00;;;;;;;;;;5040352;28;20900;-78
2022/04/29 12:05:59;;;;;;;2.20;1.73;;;;;;;;;;5042146;28;20451;-73
2022/04/29 12:08:25;;;;;;;2.73;2.53;;;;;;;;;;5045798;28;20495;-74
2022/04/29 12:10:51;;;;;;;3.50;2.47;;;;;;;;;;5043161;28;20948;-76
2022/04/29 12:13:19;;;;;;;2.33;2.23;;;;;;;;;;5044635;28;20477;-77
2022/04/29 12:15:45;;;;;;;3.27;3.13;;;;;;;;;;5050533;28;20434;-76
2022/04/29 12:18:12;;;;;;;1.90;1.90;;;;;;;;;;5048355;28;20473;-75
2022/04/29 12:20:39;;;;;;;5.37;2.50;;;;;;;;;;5042926;28;20442;-77
2022/04/29 12:23:12;;;;;;;2.40;2.30;;;;;;;;;;5048642;28;20478;-76
2022/04/29 12:25:42;;;;;;;2.40;2.30;;;;;;;;;;5046415;28;20521;-79
2022/04/29 12:28:08;;;;;;;2.70;2.50;;;;;;;;;;5050849;28;20439;-79
2022/04/29 12:36:16;;;;;;;1.90;1.90;;;;;;;;;;5048883;28;20434;-80
2022/04/29 12:38:44;;;;;;;1.93;1.80;;;;;;;;;;5049550;28;20472;-78
2022/04/29 12:41:21;;;;;;;2.10;2.10;;;;;;;;;;5045931;28;20443;-79
2022/04/29 12:43:47;;;;;;;2.63;2.33;;;;;;;;;;5044368;28;20531;-80
2022/04/29 12:46:20;;;;;;;2.33;2.23;;;;;;;;;;5049092;28;20442;-79
2022/04/29 12:48:55;;;;;;;2.40;2.33;;;;;;;;;;5047215;28;20787;-80
2022/04/29 12:51:22;;;;;;;2.00;2.00;;;;;;;;;;5039421;28;20562;-76
2022/04/29 12:53:48;;;;;;;2.37;2.27;;;;;;;;;;5047279;28;20436;-74
2022/04/29 12:56:22;;;;;;;2.57;2.40;;;;;;;;;;5045515;28;20518;-75
2022/04/29 12:58:48;;;;;;;2.33;2.33;;;;;;;;;;5043409;28;20954;-76
2022/04/29 13:01:14;;;;;;;2.37;2.37;;;;;;;;;;5045557;28;20513;-79
2022/04/29 13:03:41;;;;;;;5.53;5.23;;;;;;;;;;5044369;28;20484;-79
2022/04/29 13:06:08;;;;;;;3.43;2.80;;;;;;;;;;5045897;28;20442;-79
2022/04/29 13:08:38;;;;;;;5.73;2.20;;;;;;;;;;5049948;28;20426;-77
2022/04/29 13:11:04;;;;;;;2.93;2.73;;;;;;;;;;5046940;28;20525;-80
2022/04/29 13:13:30;;;;;;;3.70;2.60;;;;;;;;;;5047906;28;20441;-80
2022/04/29 13:15:56;;;;;;;5.00;2.40;;;;;;;;;;5049415;28;20428;-77
2022/04/29 13:18:22;;;;;;;2.20;2.10;;;;;;;;;;5047689;28;20184;-79
2022/04/29 13:20:49;;;;;;;2.57;2.37;;;;;;;;;;5048533;28;20598;-79
2022/04/29 13:23:16;;;;;;;8.30;2.43;;;;;;;;;;5049142;28;20481;-80
2022/04/29 13:25:42;;;;;;;3.27;2.50;;;;;;;;;;5046675;28;20435;-79
2022/04/29 13:28:09;;;;;;;2.30;2.10;;;;;;;;;;5047555;28;20500;-79
2022/04/29 13:30:35;;;;;;;2.30;2.20;;;;;;;;;;5048916;28;20426;-79
2022/04/29 13:33:02;;;;;;;3.77;3.30;;;;;;;;;;5047598;28;20431;-80
2022/04/29 13:35:28;;;;;;;10.17;1.77;;;;;;;;;;5048650;28;20533;-79
2022/04/29 13:37:55;;;;;;;2.40;2.30;;;;;;;;;;5046946;28;20418;-80
2022/04/29 13:40:21;;;;;;;4.10;2.30;;;;;;;;;;5048893;28;20439;-76
2022/04/29 13:42:48;;;;;;;2.30;2.20;;;;;;;;;;5041584;28;20439;-77
2022/04/29 13:45:14;;;;;;;8.27;2.53;;;;;;;;;;5044377;28;20962;-78
2022/04/29 13:47:41;;;;;;;3.70;2.20;;;;;;;;;;5045933;28;20503;-75
2022/04/29 13:50:07;;;;;;;3.27;3.00;;;;;;;;;;5045247;28;20493;-76
2022/04/29 13:55:18;;;;;;;2.17;2.17;;;;;;;;;;5046648;28;20491;-78
2022/04/29 13:57:44;;;;;;;6.77;3.40;;;;;;;;;;5048659;28;20431;-80
2022/04/29 14:00:11;;;;;;;2.90;2.80;;;;;;;;;;5047784;28;20926;-78
2022/04/29 14:02:38;;;;;;;2.67;2.67;;;;;;;;;;5045592;28;20433;-77
2022/04/29 14:05:05;;;;;;;2.37;2.27;;;;;;;;;;5047338;28;20427;-78
2022/04/29 14:07:31;;;;;;;1.83;1.70;;;;;;;;;;5047202;28;20434;-78
2022/04/29 14:09:57;;;;;;;2.67;2.10;;;;;;;;;;5048775;28;20446;-79
2022/04/29 14:12:25;;;;;;;2.57;2.47;;;;;;;;;;5048488;28;20434;-79
2022/04/29 14:14:51;;;;;;;6.67;2.50;;;;;;;;;;5044132;28;20846;-76
2022/04/29 14:17:17;;;;;;;2.13;2.03;;;;;;;;;;5044429;28;20457;-80
2022/04/29 14:19:43;;;;;;;1.97;1.97;;;;;;;;;;5046622;28;20816;-78
2022/04/29 14:22:10;;;;;;;2.33;2.10;;;;;;;;;;5047475;28;20510;-79
2022/04/29 14:24:36;;;;;;;1.97;1.97;;;;;;;;;;5046450;28;20488;-77
2022/04/29 14:27:05;;;;;;;2.10;2.10;;;;;;;;;;5046842;28;20918;-79
2022/04/29 14:29:35;;;;;;;3.07;2.97;;;;;;;;;;5037807;28;20462;-79
2022/04/29 14:32:02;;;;;;;4.90;2.90;;;;;;;;;;5048067;28;20414;-79
2022/04/29 14:34:32;;;;;;;2.00;2.00;;;;;;;;;;5042042;28;20453;-79
2022/04/29 14:37:02;;;;;;;11.33;3.90;;;;;;;;;;5048706;28;20441;-74
2022/04/29 14:39:28;;;;;;;2.20;1.80;;;;;;;;;;5042006;28;20434;-73
2022/04/29 14:41:56;;;;;;;2.17;2.07;;;;;;;;;;5046653;28;20430;-77
2022/04/29 14:44:22;;;;;;;2.70;2.60;;;;;;;;;;5042621;28;20479;-79
2022/04/29 14:46:49;;;;;;;2.73;2.40;;;;;;;;;;5048008;28;20506;-79
2022/04/29 14:49:15;;;;;;;2.60;2.50;;;;;;;;;;5041120;28;20438;-78
2022/04/29 14:51:41;;;;;;;4.78;2.60;;;;;;;;;;5025476;28;20432;-78
2022/04/29 14:54:07;;;;;;;6.83;2.80;;;;;;;;;;5045589;28;20682;-77
2022/04/29 14:56:38;;;;;;;2.10;2.00;;;;;;;;;;5047636;28;20861;-82
2022/04/29 14:59:04;;;;;;;2.50;2.30;;;;;;;;;;5043798;28;20512;-78
2022/04/29 15:01:30;;;;;;;3.67;2.43;;;;;;;;;;5043532;28;20525;-79
2022/04/29 15:03:57;;;;;;;7.50;2.40;;;;;;;;;;5045740;28;20478;-76
2022/04/29 15:06:24;;;;;;;2.87;2.73;;;;;;;;;;5047165;28;20430;-78
2022/04/29 15:15:34;;;;;;;2.50;2.40;;;;;;;;;;5046517;28;20442;-74
2022/04/29 15:17:14;;;;;;;1.90;1.80;;;;;;;;;;5046509;28;20445;-79
2022/04/29 15:19:40;;;;;;;2.20;2.10;;;;;;;;;;5046545;28;20442;-74
2022/04/29 15:22:06;;;;;;;2.47;2.37;;;;;;;;;;5047371;28;20953;-75
2022/04/29 15:24:32;;;;;;;2.37;2.27;;;;;;;;;;5044513;28;20555;-77